Time;durP1;ratioP1;P1;durP2;ratioP2;P2;SDS_P1;SDS_P2;PMS_P1;PMS_P2;Temp;Humidity;BMP_temperature;BMP_pressure;BME280_temperature;BME280_humidity;BME280_pressure;Samples;Min_cycle;Max_cycle;Signal;HPM_P1;HPM_P2
2023/11/26 00:00:28;;;;;;;11.13;6.73;;;6.90;99.40;;;;;;10444117;28;20250;-68
2023/11/26 00:05:31;;;;;;;11.53;6.37;;;6.90;99.30;;;;;;10433901;28;20238;-68
2023/11/26 00:10:35;;;;;;;11.53;6.40;;;6.90;99.40;;;;;;10451126;28;20640;-68
2023/11/26 00:15:40;;;;;;;13.57;6.67;;;6.90;99.50;;;;;;10426145;28;20241;-69
2023/11/26 00:20:43;;;;;;;11.17;6.33;;;6.90;99.60;;;;;;10410017;28;20243;-68
2023/11/26 00:25:47;;;;;;;8.77;6.53;;;6.90;99.50;;;;;;10410774;28;20635;-68
2023/11/26 00:30:52;;;;;;;8.97;6.27;;;6.90;99.60;;;;;;10413220;28;20255;-68
2023/11/26 00:35:56;;;;;;;10.67;6.30;;;6.90;99.60;;;;;;10409569;28;20235;-68
2023/11/26 00:40:59;;;;;;;13.93;6.13;;;6.90;99.60;;;;;;10414432;28;20770;-66
2023/11/26 00:46:04;;;;;;;11.37;6.30;;;6.90;99.50;;;;;;10408408;28;20683;-67
2023/11/26 00:51:08;;;;;;;8.73;6.20;;;6.90;99.70;;;;;;10415845;28;20376;-66
2023/11/26 00:56:12;;;;;;;7.23;5.97;;;6.90;99.60;;;;;;10412349;28;20239;-67
2023/11/26 01:01:17;;;;;;;10.37;6.30;;;6.90;99.60;;;;;;10418232;28;20693;-67
2023/11/26 01:06:20;;;;;;;8.33;6.00;;;6.90;99.60;;;;;;10409513;28;20289;-66
2023/11/26 01:11:25;;;;;;;10.37;5.90;;;6.90;99.50;;;;;;10411822;28;20725;-67
2023/11/26 01:16:30;;;;;;;11.10;6.87;;;6.90;99.40;;;;;;10421909;28;20234;-66
2023/11/26 01:21:34;;;;;;;11.80;6.17;;;6.90;99.80;;;;;;10428923;28;20250;-65
2023/11/26 01:26:37;;;;;;;12.20;6.20;;;6.80;99.30;;;;;;10455618;28;20261;-65
2023/11/26 01:31:42;;;;;;;9.13;6.23;;;6.80;99.40;;;;;;10463892;28;20258;-65
2023/11/26 01:36:46;;;;;;;8.63;6.00;;;6.80;99.30;;;;;;10455388;28;20229;-65
2023/11/26 01:41:49;;;;;;;8.17;6.10;;;6.80;99.30;;;;;;10459611;28;20259;-65
2023/11/26 01:46:55;;;;;;;13.37;6.63;;;6.70;99.20;;;;;;10448786;28;20202;-65
2023/11/26 01:52:00;;;;;;;13.20;6.83;;;6.70;99.20;;;;;;10439247;28;20718;-65
2023/11/26 01:57:05;;;;;;;8.47;6.23;;;6.70;99.30;;;;;;10445849;28;20258;-63
2023/11/26 02:02:10;;;;;;;10.73;6.37;;;6.70;99.20;;;;;;10451305;28;20697;-63
2023/11/26 02:07:14;;;;;;;11.07;6.83;;;6.70;99.30;;;;;;10451181;28;20829;-62
2023/11/26 02:12:18;;;;;;;11.17;6.27;;;6.70;99.30;;;;;;10450518;28;20249;-62
2023/11/26 02:17:23;;;;;;;8.73;6.00;;;6.70;99.30;;;;;;10440704;28;20202;-62
2023/11/26 02:22:27;;;;;;;8.07;6.27;;;6.70;99.30;;;;;;10472146;28;20230;-63
2023/11/26 02:27:32;;;;;;;9.73;6.27;;;6.70;99.40;;;;;;10500444;28;20227;-63
2023/11/26 02:32:35;;;;;;;7.50;5.97;;;6.70;99.40;;;;;;10499652;28;20230;-61
2023/11/26 02:37:39;;;;;;;7.63;5.70;;;6.60;99.00;;;;;;10499342;28;20201;-63
2023/11/26 02:42:44;;;;;;;11.67;6.00;;;6.60;99.10;;;;;;10495456;28;20280;-63
2023/11/26 02:47:48;;;;;;;8.40;5.27;;;6.60;99.00;;;;;;10426064;28;20223;-61
2023/11/26 02:52:51;;;;;;;9.53;5.97;;;6.60;99.00;;;;;;10456697;28;20284;-62
2023/11/26 02:57:56;;;;;;;8.33;5.80;;;6.50;98.80;;;;;;10457325;28;20210;-62
2023/11/26 03:02:59;;;;;;;11.80;6.30;;;6.50;98.80;;;;;;10457414;28;20227;-62
2023/11/26 03:08:09;;;;;;;8.80;5.40;;;6.40;98.70;;;;;;10452887;28;20199;-63
2023/11/26 03:13:20;;;;;;;7.97;5.27;;;6.40;98.80;;;;;;10446054;28;20242;-63
2023/11/26 03:18:24;;;;;;;8.63;5.10;;;6.40;98.70;;;;;;10453623;28;20620;-63
2023/11/26 03:23:28;;;;;;;11.00;6.00;;;6.40;98.60;;;;;;10456074;28;20652;-63
2023/11/26 03:28:34;;;;;;;9.47;5.97;;;6.40;98.70;;;;;;10455406;28;20264;-62
2023/11/26 03:33:38;;;;;;;7.70;5.97;;;6.40;98.70;;;;;;10454294;28;20221;-63
2023/11/26 03:38:42;;;;;;;9.60;6.77;;;6.40;98.80;;;;;;10456142;28;20695;-62
2023/11/26 03:43:47;;;;;;;11.07;6.83;;;6.40;98.70;;;;;;10456181;28;20223;-62
2023/11/26 03:48:51;;;;;;;10.97;7.50;;;6.30;98.60;;;;;;10457075;28;20237;-62
2023/11/26 03:53:55;;;;;;;13.13;7.90;;;6.30;98.60;;;;;;10455893;28;20273;-63
2023/11/26 03:59:00;;;;;;;13.03;8.03;;;6.30;98.50;;;;;;10454942;28;20731;-62
2023/11/26 04:04:04;;;;;;;15.43;9.07;;;6.30;98.40;;;;;;10454667;28;20645;-63
2023/11/26 04:09:08;;;;;;;14.63;8.40;;;6.20;98.40;;;;;;10470816;28;20220;-63
2023/11/26 04:14:13;;;;;;;13.70;9.20;;;6.20;98.50;;;;;;10496996;28;20761;-62
2023/11/26 04:19:17;;;;;;;14.53;8.60;;;6.20;98.60;;;;;;10495617;28;20200;-63
2023/11/26 04:24:20;;;;;;;13.03;8.03;;;6.20;98.70;;;;;;10486052;28;20230;-62
2023/11/26 04:29:25;;;;;;;12.93;8.93;;;6.20;98.70;;;;;;10453608;28;20339;-62
2023/11/26 04:34:29;;;;;;;11.20;7.50;;;6.20;98.80;;;;;;10453479;28;20206;-63
2023/11/26 04:39:33;;;;;;;11.60;7.03;;;6.20;98.80;;;;;;10452997;28;20748;-65
2023/11/26 04:44:38;;;;;;;14.07;7.93;;;6.30;98.90;;;;;;10415022;28;20720;-65
2023/11/26 04:49:41;;;;;;;11.77;7.87;;;6.30;98.90;;;;;;10448959;28;20276;-65
2023/11/26 04:54:45;;;;;;;13.90;7.27;;;6.30;98.90;;;;;;10446232;28;20218;-65
2023/11/26 04:59:52;;;;;;;14.30;8.17;;;6.30;98.90;;;;;;10448152;28;20284;-66
2023/11/26 05:04:55;;;;;;;11.07;7.33;;;6.30;99.30;;;;;;10450174;28;20619;-65
2023/11/26 05:09:59;;;;;;;15.77;8.33;;;6.40;99.00;;;;;;10448425;28;20351;-65
2023/11/26 05:15:05;;;;;;;11.50;7.63;;;6.40;99.00;;;;;;10448373;28;20259;-65
2023/11/26 05:20:13;;;;;;;14.93;8.17;;;6.40;98.90;;;;;;10437539;28;20272;-65
2023/11/26 05:25:17;;;;;;;10.00;7.80;;;6.40;98.90;;;;;;10445075;28;20206;-65
2023/11/26 05:30:22;;;;;;;14.90;8.57;;;6.50;99.20;;;;;;10446173;28;20300;-65
2023/11/26 05:35:27;;;;;;;11.67;8.07;;;6.40;99.30;;;;;;10455232;28;20264;-66
2023/11/26 05:40:31;;;;;;;15.20;9.13;;;6.40;98.90;;;;;;10452811;28;20223;-65
2023/11/26 05:45:36;;;;;;;18.03;9.33;;;6.40;99.40;;;;;;10464149;28;20211;-65
2023/11/26 05:50:40;;;;;;;15.10;9.47;;;6.40;99.00;;;;;;10441202;28;20225;-65
2023/11/26 05:55:43;;;;;;;14.37;9.83;;;6.40;99.20;;;;;;10439681;28;20665;-65
2023/11/26 06:00:48;;;;;;;16.00;10.10;;;6.50;99.20;;;;;;10449928;28;20218;-65
2023/11/26 06:05:52;;;;;;;22.17;11.83;;;6.50;99.30;;;;;;10457658;28;20198;-65
2023/11/26 06:10:56;;;;;;;18.63;11.77;;;6.50;99.20;;;;;;10455017;28;20244;-66
2023/11/26 06:16:01;;;;;;;20.67;12.70;;;6.50;99.60;;;;;;10444195;28;20264;-64
2023/11/26 06:21:04;;;;;;;17.30;12.80;;;6.50;99.40;;;;;;10455005;28;20219;-64
2023/11/26 06:26:08;;;;;;;24.07;14.50;;;6.50;99.20;;;;;;10451694;28;20212;-64
2023/11/26 06:31:21;;;;;;;25.50;14.57;;;6.60;99.10;;;;;;10442572;28;20223;-65
2023/11/26 06:36:25;;;;;;;23.37;14.63;;;6.60;99.10;;;;;;10432610;28;20281;-64
2023/11/26 06:41:31;;;;;;;27.70;19.80;;;6.50;99.20;;;;;;10436854;28;20510;-65
2023/11/26 06:46:36;;;;;;;21.10;15.50;;;6.60;99.00;;;;;;10455590;28;20198;-65
2023/11/26 06:51:40;;;;;;;26.47;14.73;;;6.60;99.60;;;;;;10445394;28;20246;-65
2023/11/26 06:56:44;;;;;;;23.07;14.43;;;6.50;99.20;;;;;;10458809;28;20247;-63
2023/11/26 07:01:49;;;;;;;24.53;15.00;;;6.50;99.30;;;;;;10444960;28;20223;-64
2023/11/26 07:06:52;;;;;;;24.77;15.07;;;6.50;99.90;;;;;;10435975;28;20202;-64
2023/11/26 07:11:56;;;;;;;23.80;15.80;;;6.50;99.50;;;;;;10417975;28;20263;-65
2023/11/26 07:17:01;;;;;;;23.60;17.57;;;6.50;99.30;;;;;;10421530;28;20234;-65
2023/11/26 07:22:05;;;;;;;25.80;18.20;;;6.50;99.30;;;;;;10449203;28;20214;-65
2023/11/26 07:27:09;;;;;;;28.20;18.67;;;6.50;99.30;;;;;;10436859;28;21142;-65
2023/11/26 07:32:14;;;;;;;29.20;20.53;;;6.50;99.20;;;;;;10445496;28;20281;-65
2023/11/26 07:37:17;;;;;;;32.33;20.67;;;6.50;99.50;;;;;;10431005;28;20650;-64
2023/11/26 07:42:21;;;;;;;31.50;22.20;;;6.40;99.70;;;;;;10443131;28;20219;-64
2023/11/26 07:47:26;;;;;;;31.73;22.60;;;6.40;99.70;;;;;;10451963;28;20206;-64
2023/11/26 07:52:32;;;;;;;31.87;23.20;;;6.40;99.80;;;;;;10447223;28;20700;-65
2023/11/26 07:57:37;;;;;;;33.53;22.87;;;6.40;99.50;;;;;;10452472;28;20683;-64
2023/11/26 08:02:42;;;;;;;27.37;21.67;;;6.50;99.60;;;;;;10448069;28;20306;-64
2023/11/26 08:07:46;;;;;;;30.90;22.83;;;6.50;99.50;;;;;;10441785;28;20207;-64
2023/11/26 08:12:50;;;;;;;30.43;22.60;;;6.60;99.30;;;;;;10444877;28;20227;-63
2023/11/26 08:17:56;;;;;;;29.80;22.60;;;6.60;99.40;;;;;;10452057;28;20198;-63
2023/11/26 08:23:02;;;;;;;28.93;22.13;;;6.60;99.40;;;;;;10435764;28;20277;-63
2023/11/26 08:28:07;;;;;;;27.83;21.70;;;6.60;99.50;;;;;;10452094;28;20199;-63
2023/11/26 08:33:12;;;;;;;33.57;21.97;;;6.70;99.60;;;;;;10442183;28;20308;-65
2023/11/26 08:38:16;;;;;;;29.60;19.73;;;6.70;99.50;;;;;;10442475;28;20206;-64
2023/11/26 08:43:19;;;;;;;28.40;19.23;;;6.70;99.70;;;;;;10443650;28;20227;-64
2023/11/26 08:48:24;;;;;;;27.07;17.60;;;6.70;99.90;;;;;;10442058;28;20246;-64
2023/11/26 08:53:29;;;;;;;22.10;16.00;;;6.80;99.70;;;;;;10438791;28;20226;-65
2023/11/26 08:58:33;;;;;;;20.67;14.40;;;6.90;99.90;;;;;;10450638;28;20234;-65
2023/11/26 09:03:38;;;;;;;22.20;14.17;;;6.90;99.90;;;;;;10445072;28;20218;-65
2023/11/26 09:08:41;;;;;;;16.70;12.20;;;6.90;99.70;;;;;;10452449;28;20280;-68
2023/11/26 09:13:46;;;;;;;18.07;12.43;;;6.90;99.50;;;;;;10443553;28;20223;-67
2023/11/26 09:18:51;;;;;;;20.70;12.97;;;6.90;99.50;;;;;;10442601;28;20225;-69
2023/11/26 09:23:54;;;;;;;22.43;14.20;;;6.90;99.50;;;;;;10443107;28;20241;-68
2023/11/26 09:29:00;;;;;;;21.67;14.93;;;6.90;99.30;;;;;;10444988;28;20253;-67
2023/11/26 09:34:05;;;;;;;22.63;14.40;;;6.90;99.60;;;;;;10445065;28;20316;-67
2023/11/26 09:39:12;;;;;;;22.63;14.20;;;6.90;99.60;;;;;;10446814;28;20643;-68
2023/11/26 09:44:15;;;;;;;22.20;15.17;;;6.90;99.70;;;;;;10448460;28;20595;-74
2023/11/26 09:49:20;;;;;;;21.10;14.87;;;6.90;99.70;;;;;;10445797;28;20237;-67
2023/11/26 09:54:24;;;;;;;20.87;14.20;;;6.90;99.80;;;;;;10440141;28;20254;-67
2023/11/26 09:59:28;;;;;;;23.20;15.87;;;6.90;99.60;;;;;;10443154;28;20203;-67
2023/11/26 10:04:46;;;;;;;26.63;16.83;;;6.90;99.80;;;;;;10448710;28;20666;-67
2023/11/26 10:10:03;;;;;;;21.87;15.03;;;6.90;99.50;;;;;;10446211;28;20222;-67
2023/11/26 10:15:09;;;;;;;24.40;16.03;;;6.90;99.60;;;;;;10406377;28;20246;-65
2023/11/26 10:20:20;;;;;;;22.37;16.00;;;6.90;99.60;;;;;;10430902;28;20320;-64
2023/11/26 10:25:25;;;;;;;24.70;16.33;;;6.90;99.50;;;;;;10387811;28;20277;-64
2023/11/26 10:30:30;;;;;;;22.97;17.03;;;6.90;99.90;;;;;;10439684;28;20697;-66
2023/11/26 10:35:48;;;;;;;24.00;17.07;;;7.10;99.90;;;;;;10417726;28;20222;-66
2023/11/26 10:40:53;;;;;;;22.73;15.47;;;7.10;99.70;;;;;;10450690;28;20634;-68
2023/11/26 10:45:59;;;;;;;19.93;15.57;;;7.10;99.90;;;;;;10485613;28;20770;-64
2023/11/26 10:51:06;;;;;;;21.27;14.97;;;7.20;99.90;;;;;;10468750;28;20581;-64
2023/11/26 10:56:33;;;;;;;18.83;14.17;;;7.20;99.80;;;;;;10457378;28;20693;-65
2023/11/26 11:01:38;;;;;;;22.90;14.77;;;7.20;99.90;;;;;;10457560;28;20252;-65
2023/11/26 11:06:44;;;;;;;18.63;13.73;;;7.30;99.90;;;;;;10457000;28;20203;-65
2023/11/26 11:11:58;;;;;;;16.90;13.63;;;7.40;99.90;;;;;;10457199;28;20222;-64
2023/11/26 11:17:01;;;;;;;18.00;14.20;;;7.50;99.90;;;;;;10456456;28;20678;-65
2023/11/26 11:22:06;;;;;;;22.03;14.23;;;7.50;99.90;;;;;;10456503;28;20223;-65
2023/11/26 11:27:11;;;;;;;18.50;14.63;;;7.60;99.90;;;;;;10452164;28;20249;-65
2023/11/26 11:32:14;;;;;;;23.07;15.50;;;7.70;99.90;;;;;;10452094;28;20226;-65
2023/11/26 11:37:19;;;;;;;20.10;15.57;;;7.70;99.80;;;;;;10456577;28;20220;-65
2023/11/26 11:42:26;;;;;;;20.23;14.77;;;7.80;99.90;;;;;;10430605;28;20591;-65
2023/11/26 11:47:42;;;;;;;21.87;14.97;;;7.80;99.90;;;;;;10446456;28;20272;-64
2023/11/26 11:52:55;;;;;;;21.30;13.83;;;7.90;99.90;;;;;;10455122;28;20705;-65
2023/11/26 11:58:10;;;;;;;21.77;15.70;;;7.90;99.80;;;;;;10444737;28;20246;-65
2023/11/26 12:03:18;;;;;;;21.10;13.97;;;7.90;99.90;;;;;;10450851;28;20215;-65
2023/11/26 12:08:23;;;;;;;18.33;13.10;;;8.00;99.90;;;;;;10454080;28;20582;-65
2023/11/26 12:13:27;;;;;;;16.00;12.07;;;8.20;99.90;;;;;;10448092;28;20226;-66
2023/11/26 12:18:30;;;;;;;19.00;11.83;;;8.40;99.90;;;;;;10453215;28;20257;-64
2023/11/26 12:23:37;;;;;;;20.13;12.50;;;8.50;99.80;;;;;;10456304;28;20292;-65
2023/11/26 12:28:44;;;;;;;18.07;11.03;;;8.40;99.60;;;;;;10443251;28;20195;-65
2023/11/26 12:33:47;;;;;;;16.50;10.20;;;8.40;99.70;;;;;;10448898;28;20222;-65
2023/11/26 12:38:52;;;;;;;15.57;10.60;;;8.40;99.50;;;;;;10447009;28;20210;-65
2023/11/26 12:44:01;;;;;;;16.83;11.27;;;8.30;99.50;;;;;;10443487;28;20716;-65
2023/11/26 12:49:15;;;;;;;14.87;10.43;;;8.20;99.40;;;;;;10454077;28;20215;-65
2023/11/26 12:54:20;;;;;;;18.53;12.13;;;8.20;99.60;;;;;;10447712;28;20227;-65
2023/11/26 12:59:24;;;;;;;19.27;12.23;;;8.20;99.70;;;;;;10451091;28;20203;-64
2023/11/26 13:04:31;;;;;;;16.33;12.50;;;8.30;99.90;;;;;;10450610;28;20871;-64
2023/11/26 13:09:48;;;;;;;21.37;13.13;;;8.30;99.80;;;;;;10448457;28;20211;-65
2023/11/26 13:14:52;;;;;;;20.37;14.60;;;8.20;99.80;;;;;;10446193;28;20268;-63
2023/11/26 13:19:56;;;;;;;18.27;13.80;;;8.20;99.80;;;;;;10451879;28;20246;-65
2023/11/26 13:25:01;;;;;;;19.80;13.67;;;8.20;99.90;;;;;;10449533;28;20206;-65
2023/11/26 13:30:05;;;;;;;21.27;13.83;;;8.20;99.90;;;;;;10446667;28;20219;-64
2023/11/26 13:35:11;;;;;;;16.67;13.20;;;8.20;99.90;;;;;;10458067;28;20269;-65
2023/11/26 13:40:16;;;;;;;20.03;13.87;;;8.20;99.90;;;;;;10453362;28;20592;-64
2023/11/26 13:45:19;;;;;;;20.90;13.90;;;8.20;99.90;;;;;;10435890;28;20200;-64
2023/11/26 13:50:25;;;;;;;17.97;13.37;;;8.20;99.90;;;;;;10443068;28;20296;-65
2023/11/26 13:55:29;;;;;;;20.63;13.80;;;8.10;99.90;;;;;;10444228;28;20223;-64
2023/11/26 14:00:33;;;;;;;21.47;14.40;;;8.20;99.90;;;;;;10451898;28;20347;-65
2023/11/26 14:05:38;;;;;;;19.47;12.93;;;8.10;99.90;;;;;;10457514;28;20204;-64
2023/11/26 14:10:44;;;;;;;17.50;12.53;;;8.10;99.90;;;;;;10456751;28;20223;-64
2023/11/26 14:15:51;;;;;;;17.80;12.00;;;8.20;99.90;;;;;;10444418;28;20223;-65
2023/11/26 14:20:54;;;;;;;16.70;11.37;;;8.20;99.90;;;;;;10458986;28;20226;-64
2023/11/26 14:25:59;;;;;;;15.50;12.67;;;8.20;99.90;;;;;;10460665;28;20214;-65
2023/11/26 14:31:08;;;;;;;18.20;12.07;;;8.20;99.90;;;;;;10458544;28;20219;-66
2023/11/26 14:36:11;;;;;;;14.27;11.23;;;8.20;99.90;;;;;;10456370;28;20216;-64
2023/11/26 14:41:16;;;;;;;17.90;12.63;;;8.20;99.90;;;;;;10463376;28;20219;-64
2023/11/26 14:46:20;;;;;;;18.83;13.43;;;8.10;99.90;;;;;;10454735;28;20643;-64
2023/11/26 14:51:23;;;;;;;20.83;14.83;;;8.10;99.90;;;;;;10459402;28;20231;-64
2023/11/26 14:56:30;;;;;;;17.30;14.03;;;8.00;99.90;;;;;;10449723;28;20226;-64
2023/11/26 15:01:33;;;;;;;16.90;14.23;;;8.00;99.90;;;;;;10451373;28;20268;-64
2023/11/26 15:06:37;;;;;;;17.27;13.50;;;8.00;99.90;;;;;;10454307;28;20253;-63
2023/11/26 15:11:42;;;;;;;16.27;13.10;;;8.00;99.90;;;;;;10440164;28;20222;-63
2023/11/26 15:16:46;;;;;;;18.77;15.47;;;7.90;99.90;;;;;;10448962;28;20224;-64
2023/11/26 15:21:49;;;;;;;15.77;13.20;;;7.90;99.90;;;;;;10444759;28;20223;-64
2023/11/26 15:26:54;;;;;;;18.80;14.30;;;7.90;99.90;;;;;;10447076;28;20724;-64
2023/11/26 15:32:04;;;;;;;18.17;14.70;;;7.90;99.90;;;;;;10449524;28;20230;-65
2023/11/26 15:37:11;;;;;;;18.80;14.50;;;7.80;99.90;;;;;;10448662;28;20683;-63
2023/11/26 15:42:16;;;;;;;21.03;16.17;;;7.80;99.90;;;;;;10456438;28;20238;-63
2023/11/26 15:47:20;;;;;;;21.53;16.10;;;7.80;99.90;;;;;;10413968;28;20196;-63
2023/11/26 15:52:28;;;;;;;20.70;16.43;;;7.70;99.90;;;;;;10418423;28;20319;-63
2023/11/26 15:57:34;;;;;;;19.17;16.60;;;7.70;99.90;;;;;;10455358;28;20617;-61
2023/11/26 16:02:38;;;;;;;21.02;18.77;;;7.70;99.90;;;;;;10440463;28;20869;-63
2023/11/26 16:07:42;;;;;;;20.23;16.73;;;7.70;99.90;;;;;;10455744;28;20206;-62
2023/11/26 16:12:47;;;;;;;19.67;17.17;;;7.70;99.90;;;;;;10454878;28;20281;-62
2023/11/26 16:17:51;;;;;;;20.47;18.17;;;7.70;99.90;;;;;;10460274;28;20288;-64
2023/11/26 16:22:55;;;;;;;22.73;17.63;;;7.70;99.90;;;;;;10489453;28;20757;-63
2023/11/26 16:28:00;;;;;;;23.23;19.23;;;7.70;99.90;;;;;;10491618;28;20668;-62
2023/11/26 16:33:03;;;;;;;23.00;18.33;;;7.70;99.90;;;;;;10495125;28;20222;-61
2023/11/26 16:38:07;;;;;;;25.87;20.50;;;7.70;99.90;;;;;;10495227;28;20264;-61
2023/11/26 16:43:12;;;;;;;29.77;21.70;;;7.70;99.90;;;;;;10494784;28;20282;-60
2023/11/26 16:48:16;;;;;;;24.03;18.37;;;7.80;99.90;;;;;;10494161;28;20214;-62
2023/11/26 16:53:20;;;;;;;22.80;18.53;;;7.80;99.90;;;;;;10493767;28;20275;-61
2023/11/26 16:58:24;;;;;;;23.00;18.00;;;7.80;99.90;;;;;;10494380;28;20252;-61
2023/11/26 17:03:28;;;;;;;22.80;18.23;;;7.80;99.90;;;;;;10458329;28;20593;-61
2023/11/26 17:08:32;;;;;;;22.10;18.57;;;7.80;99.90;;;;;;10494617;28;20251;-61
2023/11/26 17:13:37;;;;;;;21.80;17.73;;;7.80;99.90;;;;;;10494575;28;20264;-61
2023/11/26 17:18:40;;;;;;;19.77;17.60;;;7.80;99.90;;;;;;10494488;28;20785;-61
2023/11/26 17:23:45;;;;;;;23.07;18.10;;;7.90;99.90;;;;;;10493612;28;20706;-60
2023/11/26 17:28:56;;;;;;;22.60;19.47;;;7.90;99.90;;;;;;10494001;28;20202;-60
2023/11/26 17:33:59;;;;;;;17.40;15.10;;;7.90;99.90;;;;;;10492992;28;20252;-62
2023/11/26 17:39:05;;;;;;;17.70;13.33;;;7.90;99.90;;;;;;10493412;28;20252;-61
2023/11/26 17:44:10;;;;;;;12.20;10.90;;;7.90;99.90;;;;;;10494717;28;20249;-62
2023/11/26 17:49:14;;;;;;;14.30;11.40;;;7.90;99.90;;;;;;10492747;28;20206;-61
2023/11/26 17:54:18;;;;;;;15.60;12.57;;;7.90;99.90;;;;;;10489360;28;20283;-61
2023/11/26 17:59:22;;;;;;;16.13;13.33;;;7.80;99.90;;;;;;10501548;28;20228;-63
2023/11/26 18:04:27;;;;;;;16.70;13.00;;;7.80;99.90;;;;;;10471678;28;20219;-62
2023/11/26 18:09:32;;;;;;;16.97;12.10;;;7.80;99.90;;;;;;10459711;28;20260;-62
2023/11/26 18:14:41;;;;;;;15.50;10.67;;;7.70;99.90;;;;;;10460253;28;20615;-64
2023/11/26 18:19:46;;;;;;;14.73;11.17;;;7.70;99.90;;;;;;10434317;28;20281;-63
2023/11/26 18:24:49;;;;;;;16.47;13.07;;;7.60;99.90;;;;;;10459467;28;20202;-60
2023/11/26 18:29:54;;;;;;;21.27;15.10;;;7.60;99.90;;;;;;10458861;28;20249;-61
2023/11/26 18:34:58;;;;;;;20.67;15.93;;;7.70;99.90;;;;;;10458780;28;20223;-63
2023/11/26 18:40:03;;;;;;;23.40;17.50;;;7.70;99.90;;;;;;10436647;28;20225;-63
2023/11/26 18:45:09;;;;;;;25.10;18.93;;;7.80;99.90;;;;;;10477654;28;20207;-64
2023/11/26 18:50:13;;;;;;;23.30;18.83;;;7.80;99.90;;;;;;10457367;28;20284;-64
2023/11/26 18:55:18;;;;;;;25.83;20.00;;;7.80;99.90;;;;;;10451000;28;20633;-62
2023/11/26 19:00:23;;;;;;;27.27;20.17;;;7.80;99.90;;;;;;10420126;28;20231;-64
2023/11/26 19:05:27;;;;;;;29.07;20.00;;;7.80;99.90;;;;;;10467229;28;20664;-65
2023/11/26 19:10:31;;;;;;;29.33;20.13;;;7.80;99.90;;;;;;10457852;28;20275;-65
2023/11/26 19:15:35;;;;;;;33.23;21.40;;;7.80;99.90;;;;;;10476595;28;20689;-62
2023/11/26 19:20:39;;;;;;;27.43;19.57;;;7.80;99.90;;;;;;10470392;28;20218;-63
2023/11/26 19:25:43;;;;;;;35.77;20.40;;;7.80;99.90;;;;;;10477689;28;20252;-62
2023/11/26 19:30:48;;;;;;;27.40;19.10;;;7.80;99.90;;;;;;10462668;28;20226;-62
2023/11/26 19:35:53;;;;;;;32.83;19.33;;;7.70;99.90;;;;;;10477518;28;20270;-62
2023/11/26 19:40:56;;;;;;;27.83;17.83;;;7.70;99.90;;;;;;10467573;28;20249;-61
2023/11/26 19:46:02;;;;;;;23.50;17.27;;;7.70;99.90;;;;;;10469200;28;20202;-63
2023/11/26 19:51:10;;;;;;;33.53;17.87;;;7.70;99.90;;;;;;10480588;28;20235;-63
2023/11/26 19:56:17;;;;;;;32.93;21.33;;;7.60;99.90;;;;;;10469788;28;20252;-62
2023/11/26 20:01:26;;;;;;;26.27;18.30;;;7.70;99.90;;;;;;10413216;28;20628;-60
2023/11/26 20:06:29;;;;;;;27.90;17.57;;;7.70;99.90;;;;;;10468718;28;20241;-62
2023/11/26 20:11:34;;;;;;;30.77;19.30;;;7.70;99.90;;;;;;10428478;28;20256;-63
2023/11/26 20:16:39;;;;;;;25.97;16.57;;;7.70;99.90;;;;;;10464867;28;20214;-62
2023/11/26 20:21:43;;;;;;;22.13;15.50;;;7.70;99.90;;;;;;10467884;28;20241;-63
2023/11/26 20:26:47;;;;;;;22.77;14.20;;;7.70;99.90;;;;;;10478369;28;20194;-63
2023/11/26 20:31:52;;;;;;;27.07;14.30;;;7.80;99.90;;;;;;10477096;28;20247;-64
2023/11/26 20:36:55;;;;;;;20.87;12.97;;;7.80;99.90;;;;;;10465622;28;20222;-64
2023/11/26 20:41:59;;;;;;;21.60;12.20;;;7.70;99.90;;;;;;10462054;28;20235;-64
2023/11/26 20:47:04;;;;;;;20.63;11.00;;;7.70;99.90;;;;;;10469024;28;20588;-64
2023/11/26 20:52:14;;;;;;;18.50;9.97;;;7.60;99.90;;;;;;10466382;28;20230;-64
2023/11/26 20:57:18;;;;;;;18.70;10.47;;;7.50;99.90;;;;;;10465250;28;20230;-64
2023/11/26 21:02:23;;;;;;;16.97;9.97;;;7.50;99.90;;;;;;10473772;28;20226;-65
2023/11/26 21:07:26;;;;;;;20.07;10.43;;;7.50;99.90;;;;;;10465181;28;20220;-64
2023/11/26 21:12:31;;;;;;;20.33;9.97;;;7.50;99.90;;;;;;10421003;28;20280;-62
2023/11/26 21:17:37;;;;;;;19.17;11.03;;;7.40;99.90;;;;;;10441942;28;20601;-63
2023/11/26 21:22:42;;;;;;;17.90;10.97;;;7.40;99.90;;;;;;10461500;28;20268;-64
2023/11/26 21:27:46;;;;;;;19.20;10.30;;;7.40;99.90;;;;;;10453223;28;20220;-63
2023/11/26 21:32:51;;;;;;;15.97;10.47;;;7.40;99.90;;;;;;10464516;28;20214;-63
2023/11/26 21:37:54;;;;;;;15.03;9.50;;;7.40;99.90;;;;;;10457665;28;20710;-63
2023/11/26 21:42:58;;;;;;;15.17;9.47;;;7.40;99.90;;;;;;10473508;28;20218;-64
2023/11/26 21:48:17;;;;;;;13.10;8.93;;;7.40;99.90;;;;;;10471323;28;20268;-62
2023/11/26 21:53:20;;;;;;;15.00;8.20;;;7.30;99.90;;;;;;10467887;28;20226;-63
2023/11/26 21:58:24;;;;;;;17.80;8.57;;;7.30;99.90;;;;;;10462581;28;20272;-62
2023/11/26 22:03:29;;;;;;;16.70;8.27;;;7.30;99.90;;;;;;10464093;28;20228;-62
2023/11/26 22:08:33;;;;;;;14.80;8.60;;;7.30;99.90;;;;;;10460709;28;20194;-63
2023/11/26 22:13:36;;;;;;;12.20;7.37;;;7.30;99.90;;;;;;10456199;28;20251;-64
2023/11/26 22:18:41;;;;;;;14.47;7.73;;;7.20;99.90;;;;;;10470087;28;20243;-63
2023/11/26 22:23:45;;;;;;;12.93;6.37;;;7.20;99.90;;;;;;10468883;28;20287;-63
2023/11/26 22:28:49;;;;;;;14.00;7.40;;;7.20;99.90;;;;;;10446799;28;20221;-62
2023/11/26 22:33:54;;;;;;;8.73;6.47;;;7.20;99.90;;;;;;10470075;28;20774;-63
2023/11/26 22:38:58;;;;;;;12.10;6.60;;;7.20;99.90;;;;;;10464439;28;20272;-64
2023/11/26 22:44:01;;;;;;;11.00;5.97;;;7.20;99.90;;;;;;10472084;28;20226;-63
2023/11/26 22:49:06;;;;;;;12.20;6.10;;;7.20;99.90;;;;;;10472440;28;20206;-62
2023/11/26 22:54:10;;;;;;;11.27;5.70;;;7.20;99.90;;;;;;10471103;28;20223;-64
2023/11/26 22:59:13;;;;;;;9.50;5.73;;;7.20;99.90;;;;;;10470588;28;20764;-64
2023/11/26 23:04:19;;;;;;;11.07;5.53;;;7.10;99.90;;;;;;10477079;28;20229;-63
2023/11/26 23:09:24;;;;;;;11.73;5.87;;;7.10;99.90;;;;;;10466296;28;20206;-63
2023/11/26 23:14:27;;;;;;;9.27;5.20;;;7.10;99.90;;;;;;10473509;28;20271;-63
2023/11/26 23:19:32;;;;;;;9.83;5.57;;;7.10;99.90;;;;;;10481424;28;20278;-63
2023/11/26 23:24:36;;;;;;;15.73;9.73;;;7.10;99.90;;;;;;10465414;28;20903;-63
2023/11/26 23:29:39;;;;;;;10.40;6.10;;;7.10;99.90;;;;;;10467430;28;20222;-63
2023/11/26 23:34:44;;;;;;;11.13;6.90;;;7.00;99.90;;;;;;10475813;28;20203;-63
2023/11/26 23:39:48;;;;;;;10.30;6.20;;;7.00;99.90;;;;;;10472840;28;20235;-63
2023/11/26 23:44:52;;;;;;;11.00;7.53;;;7.00;99.90;;;;;;10478340;28;20223;-63
2023/11/26 23:49:57;;;;;;;10.63;5.97;;;7.00;99.90;;;;;;10474764;28;20222;-63
2023/11/26 23:55:02;;;;;;;11.57;6.20;;;7.00;99.90;;;;;;10466634;28;20202;-63
